createdAt,value
2022-11-30T00:01:51.433Z,100502.88
2022-11-30T00:04:21.586Z,100502.03
2022-11-30T00:06:49.514Z,100499.03
2022-11-30T00:09:17.285Z,100499.72
2022-11-30T00:11:44.872Z,100485.69
2022-11-30T00:14:14.351Z,100488.38
2022-11-30T00:16:42.062Z,100483.50
2022-11-30T00:19:09.736Z,100491.53
2022-11-30T00:21:37.585Z,100491.53
2022-11-30T00:24:08.824Z,100486.66
2022-11-30T00:26:37.137Z,100490.34
2022-11-30T00:29:06.199Z,100501.88
2022-11-30T00:31:35.789Z,100496.88
2022-11-30T00:34:04.136Z,100489.34
2022-11-30T00:36:31.843Z,100488.84
2022-11-30T00:38:59.448Z,100482.16
2022-11-30T00:41:27.094Z,100483.19
2022-11-30T00:43:54.864Z,100484.88
2022-11-30T00:46:22.548Z,100491.34
2022-11-30T00:48:52.156Z,100485.84
2022-11-30T00:51:20.352Z,100489.19
2022-11-30T00:53:48.514Z,100483.16
2022-11-30T00:56:18.837Z,100478.16
2022-11-30T00:58:47.075Z,100476.34
2022-11-30T01:01:17.083Z,100475.19
2022-11-30T01:03:51.138Z,100474.97
2022-11-30T01:06:48.032Z,100470.34
2022-11-30T01:09:16.234Z,100478.34
2022-11-30T01:11:46.353Z,100480.88
2022-11-30T01:14:16.669Z,100477.84
2022-11-30T01:16:44.844Z,100481.84
2022-11-30T01:19:25.349Z,100486.53
2022-11-30T01:22:04.963Z,100495.06
2022-11-30T01:24:39.814Z,100482.84
2022-11-30T01:27:08.284Z,100475.84
2022-11-30T01:29:35.978Z,100475.00
2022-11-30T01:32:07.184Z,100474.84
2022-11-30T01:34:43.224Z,100479.00
2022-11-30T01:37:12.187Z,100482.50
2022-11-30T01:39:49.905Z,100483.03
2022-11-30T01:42:23.091Z,100486.84
2022-11-30T01:45:02.010Z,100488.72
2022-11-30T01:47:34.018Z,100490.53
2022-11-30T01:50:07.738Z,100486.53
2022-11-30T01:52:46.019Z,100488.72
2022-11-30T01:55:21.463Z,100484.38
2022-11-30T01:57:58.209Z,100484.50
2022-11-30T02:00:30.614Z,100491.69
2022-11-30T02:03:07.355Z,100490.88
2022-11-30T02:05:39.480Z,100491.88
2022-11-30T02:08:25.999Z,100495.53
2022-11-30T02:11:07.639Z,100500.38
2022-11-30T02:14:01.041Z,100496.38
2022-11-30T02:16:42.169Z,100500.03
2022-11-30T02:19:46.295Z,100500.06
2022-11-30T02:22:25.429Z,100499.53
2022-11-30T02:25:09.708Z,100492.84
2022-11-30T02:28:00.198Z,100498.03
2022-11-30T02:30:40.229Z,100499.22
2022-11-30T02:33:26.619Z,100494.22
2022-11-30T02:35:59.112Z,100496.22
2022-11-30T02:38:31.040Z,100499.03
2022-11-30T02:41:22.005Z,100491.53
2022-11-30T02:43:57.236Z,100490.88
2022-11-30T02:46:44.585Z,100498.22
2022-11-30T02:49:24.972Z,100494.38
2022-11-30T02:51:57.728Z,100493.72
2022-11-30T02:54:29.607Z,100503.03
2022-11-30T02:57:00.852Z,100498.53
2022-11-30T02:59:45.675Z,100500.53
2022-11-30T03:02:21.551Z,100502.06
2022-11-30T03:05:05.215Z,100498.53
2022-11-30T03:07:35.595Z,100496.38
2022-11-30T03:10:08.462Z,100511.06
2022-11-30T03:12:36.460Z,100511.75
2022-11-30T03:15:04.754Z,100508.22
2022-11-30T03:17:34.143Z,100510.22
2022-11-30T03:20:02.824Z,100508.72
2022-11-30T03:22:32.254Z,100516.91
2022-11-30T03:25:01.757Z,100510.56
2022-11-30T03:27:32.977Z,100518.91
2022-11-30T03:30:00.683Z,100517.41
2022-11-30T03:32:32.290Z,100517.72
2022-11-30T03:35:01.436Z,100513.06
2022-11-30T03:37:39.722Z,100510.91
2022-11-30T03:40:11.504Z,100511.91
2022-11-30T03:42:43.195Z,100510.25
2022-11-30T03:45:17.588Z,100511.06
2022-11-30T03:47:56.774Z,100508.75
2022-11-30T03:50:27.715Z,100512.56
2022-11-30T03:53:05.354Z,100509.91
2022-11-30T03:55:36.475Z,100508.72
2022-11-30T03:58:04.259Z,100513.75
2022-11-30T04:00:33.326Z,100507.72
2022-11-30T04:03:01.068Z,100513.22
2022-11-30T04:05:30.559Z,100506.53
2022-11-30T04:07:58.616Z,100507.03
2022-11-30T04:10:28.616Z,100515.03
2022-11-30T04:13:03.109Z,100510.53
2022-11-30T04:15:33.068Z,100515.91
2022-11-30T04:18:00.884Z,100514.72
2022-11-30T04:20:30.226Z,100529.75
2022-11-30T04:23:00.953Z,100514.22
2022-11-30T04:25:29.147Z,100523.06
2022-11-30T04:27:58.676Z,100525.91
2022-11-30T04:30:26.476Z,100521.56
2022-11-30T04:32:54.234Z,100515.06
2022-11-30T04:35:22.407Z,100516.25
2022-11-30T04:37:54.312Z,100512.91
2022-11-30T04:40:22.499Z,100516.56
2022-11-30T04:42:50.059Z,100513.38
2022-11-30T04:45:18.921Z,100522.06
2022-11-30T04:47:51.705Z,100515.06
2022-11-30T04:50:19.811Z,100514.41
2022-11-30T04:52:48.257Z,100525.56
2022-11-30T04:55:19.459Z,100516.88
2022-11-30T04:57:49.163Z,100518.25
2022-11-30T05:00:19.242Z,100517.25
2022-11-30T05:02:52.497Z,100512.41
2022-11-30T05:05:21.210Z,100517.75
2022-11-30T05:07:53.018Z,100524.56
2022-11-30T05:13:05.827Z,100520.56
2022-11-30T05:15:33.564Z,100518.91
2022-11-30T05:18:01.989Z,100515.72
2022-11-30T05:20:30.158Z,100523.25
2022-11-30T05:22:58.587Z,100528.94
2022-11-30T05:25:27.904Z,100529.59
2022-11-30T05:27:59.441Z,100529.44
2022-11-30T05:30:31.673Z,100538.75
2022-11-30T05:33:02.960Z,100535.59
2022-11-30T05:35:30.824Z,100530.06
2022-11-30T05:38:00.152Z,100542.41
2022-11-30T05:40:32.354Z,100535.28
2022-11-30T05:43:01.009Z,100539.63
2022-11-30T05:45:29.518Z,100539.94
2022-11-30T05:47:57.617Z,100540.75
2022-11-30T05:50:29.319Z,100539.94
2022-11-30T05:53:01.125Z,100541.59
2022-11-30T05:55:32.332Z,100546.09
2022-11-30T05:58:02.507Z,100543.94
2022-11-30T06:00:33.177Z,100551.09
2022-11-30T06:03:01.119Z,100544.63
2022-11-30T06:05:29.635Z,100543.44
2022-11-30T06:08:00.591Z,100546.25
2022-11-30T06:10:30.165Z,100544.28
2022-11-30T06:12:58.024Z,100547.28
2022-11-30T06:15:26.129Z,100545.28
2022-11-30T06:17:58.252Z,100550.63
2022-11-30T06:20:26.955Z,100545.94
2022-11-30T06:22:57.608Z,100553.78
2022-11-30T06:25:26.521Z,100557.47
2022-11-30T06:28:03.480Z,100554.63
2022-11-30T06:30:31.643Z,100549.94
2022-11-30T06:33:03.969Z,100558.97
2022-11-30T06:35:31.758Z,100561.81
2022-11-30T06:38:01.387Z,100567.16
2022-11-30T06:40:29.716Z,100567.81
2022-11-30T06:43:00.398Z,100565.81
2022-11-30T06:45:28.478Z,100562.78
2022-11-30T06:47:56.937Z,100567.66
2022-11-30T06:50:25.281Z,100560.78
2022-11-30T06:53:02.055Z,100562.94
2022-11-30T06:55:32.970Z,100568.63
2022-11-30T06:58:07.631Z,100569.97
2022-11-30T07:00:35.796Z,100570.66
2022-11-30T07:03:07.232Z,100566.66
2022-11-30T07:05:43.474Z,100570.81
2022-11-30T07:08:11.347Z,100568.97
2022-11-30T07:10:40.901Z,100577.34
2022-11-30T07:13:30.795Z,100577.84
2022-11-30T07:16:01.070Z,100579.66
2022-11-30T07:18:32.087Z,100575.66
2022-11-30T07:21:19.331Z,100578.81
2022-11-30T07:24:07.774Z,100582.34
2022-11-30T07:26:38.366Z,100580.50
2022-11-30T07:29:09.908Z,100574.00
2022-11-30T07:31:42.201Z,100573.97
2022-11-30T07:34:23.844Z,100581.00
2022-11-30T07:36:52.341Z,100575.97
2022-11-30T07:39:41.639Z,100583.00
2022-11-30T07:42:09.320Z,100584.50
2022-11-30T07:44:38.486Z,100591.69
2022-11-30T07:47:06.143Z,100585.88
2022-11-30T07:49:33.753Z,100588.53
2022-11-30T07:52:04.470Z,100588.53
2022-11-30T07:54:32.075Z,100586.19
2022-11-30T07:57:02.089Z,100596.19
2022-11-30T07:59:30.297Z,100591.34
2022-11-30T08:02:00.399Z,100594.06
2022-11-30T08:04:28.307Z,100598.38
2022-11-30T08:06:56.000Z,100594.00
2022-11-30T08:09:23.789Z,100600.53
2022-11-30T08:11:51.435Z,100595.03
2022-11-30T08:14:19.131Z,100599.53
2022-11-30T08:16:47.615Z,100594.84
2022-11-30T08:19:16.985Z,100596.53
2022-11-30T08:21:44.693Z,100597.69
2022-11-30T08:24:21.189Z,100598.88
2022-11-30T08:26:52.979Z,100586.66
2022-11-30T08:29:20.999Z,100595.88
2022-11-30T08:31:48.780Z,100596.38
2022-11-30T08:34:27.133Z,100597.03
2022-11-30T08:36:55.376Z,100590.53
2022-11-30T08:39:23.009Z,100601.03
2022-11-30T08:41:52.197Z,100598.38
2022-11-30T08:44:21.338Z,100607.56
2022-11-30T08:46:51.906Z,100604.22
2022-11-30T08:49:23.783Z,100603.72
2022-11-30T08:52:16.441Z,100608.59
2022-11-30T08:54:47.476Z,100607.06
2022-11-30T08:57:16.260Z,100611.06
2022-11-30T08:59:44.294Z,100616.41
2022-11-30T09:02:13.908Z,100617.09
2022-11-30T09:04:43.211Z,100620.78
2022-11-30T09:07:13.597Z,100622.94
2022-11-30T09:09:41.883Z,100625.59
2022-11-30T09:12:09.820Z,100623.09
2022-11-30T09:14:37.542Z,100628.78
2022-11-30T09:17:05.375Z,100627.44
2022-11-30T09:19:34.292Z,100628.28
2022-11-30T09:22:03.472Z,100629.94
2022-11-30T09:24:31.430Z,100629.06
2022-11-30T09:27:00.226Z,100632.44
2022-11-30T09:29:27.872Z,100624.72
2022-11-30T09:31:58.109Z,100627.69
2022-11-30T09:34:25.744Z,100632.06
2022-11-30T09:36:53.445Z,100630.53
2022-11-30T09:39:23.045Z,100629.91
2022-11-30T09:42:17.650Z,100630.72
2022-11-30T09:44:54.266Z,100641.78
2022-11-30T09:47:40.714Z,100642.09
2022-11-30T09:50:15.599Z,100630.78
2022-11-30T09:52:47.670Z,100641.00
2022-11-30T09:55:24.029Z,100631.47
2022-11-30T09:57:55.072Z,100626.13
2022-11-30T10:00:25.096Z,100627.63
2022-11-30T10:02:54.892Z,100636.28
2022-11-30T10:05:26.875Z,100635.97
2022-11-30T10:08:11.827Z,100631.44
2022-11-30T10:10:44.168Z,100630.03
2022-11-30T10:13:27.782Z,100641.88
2022-11-30T10:16:08.198Z,100636.06
2022-11-30T10:18:45.787Z,100640.09
2022-11-30T10:21:27.609Z,100636.13
2022-11-30T10:24:11.523Z,100640.31
2022-11-30T10:26:55.801Z,100642.16
2022-11-30T10:29:31.780Z,100637.31
2022-11-30T10:32:01.745Z,100639.63
2022-11-30T10:34:35.180Z,100634.47
2022-11-30T10:37:12.083Z,100625.09
2022-11-30T10:39:44.789Z,100629.63
2022-11-30T10:42:21.517Z,100626.63
2022-11-30T10:45:00.092Z,100627.63
2022-11-30T10:47:31.244Z,100623.78
2022-11-30T10:49:59.129Z,100623.59
2022-11-30T10:52:29.893Z,100627.44
2022-11-30T10:55:04.237Z,100629.09
2022-11-30T10:57:34.367Z,100627.09
2022-11-30T11:00:07.682Z,100626.09
2022-11-30T11:02:40.097Z,100633.44
2022-11-30T11:05:20.656Z,100630.94
2022-11-30T11:08:02.753Z,100624.06
2022-11-30T11:10:35.568Z,100624.41
2022-11-30T11:13:06.192Z,100626.06
2022-11-30T11:15:35.568Z,100627.09
2022-11-30T11:18:28.924Z,100617.25
2022-11-30T11:21:06.180Z,100615.19
2022-11-30T11:23:37.638Z,100621.31
2022-11-30T11:26:06.425Z,100618.25
2022-11-30T11:28:37.257Z,100613.84
2022-11-30T11:31:19.741Z,100622.69
2022-11-30T11:33:55.125Z,100616.81
2022-11-30T11:36:28.782Z,100610.69
2022-11-30T11:38:57.194Z,100618.84
2022-11-30T11:41:28.115Z,100618.97
2022-11-30T11:44:02.436Z,100609.28
2022-11-30T11:46:31.858Z,100611.72
2022-11-30T11:49:02.266Z,100610.03
2022-11-30T11:51:32.389Z,100614.38
2022-11-30T11:54:06.253Z,100619.50
2022-11-30T11:56:36.483Z,100616.72
2022-11-30T11:59:14.653Z,100616.44
2022-11-30T12:01:51.197Z,100617.75
2022-11-30T12:04:41.180Z,100618.41
2022-11-30T12:07:18.492Z,100617.19
2022-11-30T12:09:58.356Z,100612.94
2022-11-30T12:12:26.365Z,100617.88
2022-11-30T12:14:57.902Z,100619.09
2022-11-30T12:17:40.738Z,100617.94
2022-11-30T12:20:20.652Z,100623.03
2022-11-30T12:23:13.548Z,100622.72
2022-11-30T12:25:47.972Z,100619.66
2022-11-30T12:28:25.889Z,100615.53
2022-11-30T12:31:12.065Z,100623.78
2022-11-30T12:33:58.488Z,100612.53
2022-11-30T12:36:46.884Z,100619.53
2022-11-30T12:39:26.477Z,100617.31
2022-11-30T12:41:59.523Z,100615.53
2022-11-30T12:44:42.406Z,100619.75
2022-11-30T12:47:27.044Z,100612.88
2022-11-30T12:50:11.809Z,100623.41
2022-11-30T12:52:49.225Z,100622.22
2022-11-30T12:55:34.980Z,100625.03
2022-11-30T12:58:13.235Z,100620.75
2022-11-30T13:00:50.865Z,100619.75
2022-11-30T13:03:59.633Z,100624.44
2022-11-30T13:06:33.604Z,100625.44
2022-11-30T13:09:07.628Z,100619.25
2022-11-30T13:11:38.432Z,100613.41
2022-11-30T13:14:10.859Z,100617.06
2022-11-30T13:16:40.459Z,100617.22
2022-11-30T13:19:25.974Z,100615.56
2022-11-30T13:22:00.445Z,100621.88
2022-11-30T13:24:35.529Z,100621.56
2022-11-30T13:27:11.355Z,100620.19
2022-11-30T13:30:04.080Z,100613.13
2022-11-30T13:32:57.523Z,100623.34
2022-11-30T13:35:43.612Z,100615.84
2022-11-30T13:41:09.413Z,100617.13
2022-11-30T13:43:41.705Z,100612.09
2022-11-30T13:46:16.780Z,100617.25
2022-11-30T13:48:45.980Z,100614.59
2022-11-30T13:51:36.417Z,100620.59
2022-11-30T13:54:38.731Z,100613.72
2022-11-30T13:57:20.282Z,100613.69
2022-11-30T13:59:52.858Z,100615.78
2022-11-30T14:03:00.515Z,100607.09
2022-11-30T14:05:40.258Z,100612.47
2022-11-30T14:08:17.883Z,100610.28
2022-11-30T14:10:47.347Z,100615.22
2022-11-30T14:13:32.059Z,100623.97
2022-11-30T14:16:02.822Z,100621.09
2022-11-30T14:18:42.096Z,100617.97
2022-11-30T14:21:20.738Z,100619.94
2022-11-30T14:24:00.888Z,100623.81
2022-11-30T14:26:31.583Z,100628.97
2022-11-30T14:29:05.184Z,100631.13
2022-11-30T14:31:38.293Z,100632.66
2022-11-30T14:34:14.124Z,100640.19
2022-11-30T14:36:48.770Z,100633.31
2022-11-30T14:39:35.133Z,100637.91
2022-11-30T14:42:05.139Z,100639.38
2022-11-30T14:44:42.817Z,100636.25
2022-11-30T14:47:16.776Z,100636.78
2022-11-30T14:49:52.140Z,100633.38
2022-11-30T14:52:39.659Z,100632.72
2022-11-30T14:55:24.851Z,100632.09
2022-11-30T14:58:06.942Z,100629.25
2022-11-30T15:00:39.294Z,100634.13
2022-11-30T15:03:21.964Z,100629.63
2022-11-30T15:05:56.444Z,100621.28
2022-11-30T15:08:47.580Z,100631.44
2022-11-30T15:11:19.468Z,100631.09
2022-11-30T15:13:49.671Z,100634.81
2022-11-30T15:16:20.698Z,100639.63
2022-11-30T15:18:52.632Z,100629.63
2022-11-30T15:21:25.382Z,100634.13
2022-11-30T15:23:55.702Z,100622.44
2022-11-30T15:26:30.867Z,100629.94
2022-11-30T15:29:02.937Z,100631.97
2022-11-30T15:31:36.055Z,100632.28
2022-11-30T15:34:07.196Z,100636.59
2022-11-30T15:36:38.000Z,100628.09
2022-11-30T15:39:08.110Z,100631.25
2022-11-30T15:41:37.580Z,100638.13
2022-11-30T15:44:07.029Z,100633.59
2022-11-30T15:46:42.728Z,100631.13
2022-11-30T15:49:21.169Z,100638.47
2022-11-30T15:51:59.377Z,100640.50
2022-11-30T15:54:47.719Z,100646.31
2022-11-30T15:57:17.817Z,100644.16
2022-11-30T16:00:03.852Z,100651.81
2022-11-30T16:02:34.540Z,100650.31
2022-11-30T16:05:22.477Z,100653.69
2022-11-30T16:07:53.598Z,100654.84
2022-11-30T16:10:24.265Z,100654.50
2022-11-30T16:12:56.422Z,100658.34
2022-11-30T16:15:26.655Z,100663.19
2022-11-30T16:18:03.321Z,100664.72
2022-11-30T16:20:32.068Z,100665.69
2022-11-30T16:23:05.307Z,100669.84
2022-11-30T16:25:34.096Z,100665.16
2022-11-30T16:28:04.588Z,100666.50
2022-11-30T16:30:32.789Z,100669.53
2022-11-30T16:33:03.032Z,100679.84
2022-11-30T16:35:36.762Z,100676.84
2022-11-30T16:38:05.038Z,100679.03
2022-11-30T16:40:38.579Z,100676.19
2022-11-30T16:43:10.953Z,100676.88
2022-11-30T16:45:41.333Z,100682.19
2022-11-30T16:48:09.203Z,100685.69
2022-11-30T16:50:37.725Z,100686.69
2022-11-30T16:53:06.928Z,100676.53
2022-11-30T16:55:37.716Z,100683.56
2022-11-30T16:58:06.390Z,100688.06
2022-11-30T17:00:36.285Z,100688.72
2022-11-30T17:03:09.326Z,100693.53
2022-11-30T17:05:38.068Z,100695.06
2022-11-30T17:08:06.393Z,100694.53
2022-11-30T17:10:34.573Z,100692.53
2022-11-30T17:13:02.431Z,100696.88
2022-11-30T17:15:30.250Z,100699.59
2022-11-30T17:17:59.457Z,100699.09
2022-11-30T17:20:28.611Z,100700.25
2022-11-30T17:22:56.316Z,100702.13
2022-11-30T17:25:25.170Z,100702.91
2022-11-30T17:27:53.211Z,100702.56
2022-11-30T17:30:23.753Z,100708.59
2022-11-30T17:32:52.085Z,100703.41
2022-11-30T17:35:22.057Z,100703.91
2022-11-30T17:37:50.667Z,100707.25
2022-11-30T17:40:18.488Z,100704.25
2022-11-30T17:42:46.179Z,100706.22
2022-11-30T17:45:14.254Z,100711.22
2022-11-30T17:47:41.973Z,100703.53
2022-11-30T17:50:11.503Z,100711.41
2022-11-30T17:52:40.507Z,100707.38
2022-11-30T17:55:09.090Z,100713.09
2022-11-30T17:57:38.402Z,100713.41
2022-11-30T18:00:07.984Z,100714.22
2022-11-30T18:02:35.733Z,100708.41
2022-11-30T18:05:03.441Z,100711.41
2022-11-30T18:07:31.378Z,100718.25
2022-11-30T18:10:01.757Z,100719.75
2022-11-30T18:12:31.758Z,100716.91
2022-11-30T18:15:01.696Z,100712.56
2022-11-30T18:17:29.526Z,100714.56
2022-11-30T18:19:57.477Z,100723.78
2022-11-30T18:22:25.595Z,100715.94
2022-11-30T18:24:53.336Z,100721.75
2022-11-30T18:27:25.076Z,100727.75
2022-11-30T18:29:52.995Z,100732.63
2022-11-30T18:32:20.853Z,100725.09
2022-11-30T18:34:49.740Z,100731.28
2022-11-30T18:37:17.915Z,100724.94
2022-11-30T18:39:45.802Z,100733.63
2022-11-30T18:42:13.511Z,100733.19
2022-11-30T18:44:45.253Z,100735.31
2022-11-30T18:47:13.386Z,100738.00
2022-11-30T18:49:41.024Z,100738.81
2022-11-30T18:52:09.236Z,100735.97
2022-11-30T18:54:37.202Z,100739.31
2022-11-30T18:57:05.079Z,100737.81
2022-11-30T18:59:33.215Z,100749.03
2022-11-30T19:02:02.722Z,100741.31
2022-11-30T19:04:31.075Z,100741.69
2022-11-30T19:06:58.870Z,100742.22
2022-11-30T19:09:29.251Z,100736.38
2022-11-30T19:11:58.032Z,100737.34
2022-11-30T19:14:28.886Z,100734.84
2022-11-30T19:16:56.524Z,100735.69
2022-11-30T19:19:26.875Z,100743.63
2022-11-30T19:21:54.901Z,100745.31
2022-11-30T19:24:22.675Z,100752.84
2022-11-30T19:26:52.308Z,100748.22
2022-11-30T19:29:20.236Z,100746.81
2022-11-30T19:31:48.998Z,100752.31
2022-11-30T19:34:16.619Z,100752.00
2022-11-30T19:36:46.027Z,100746.50
2022-11-30T19:39:19.396Z,100755.00
2022-11-30T19:41:47.808Z,100759.59
2022-11-30T19:44:18.561Z,100757.56
2022-11-30T19:46:46.357Z,100754.50
2022-11-30T19:49:14.049Z,100754.16
2022-11-30T19:51:41.669Z,100753.66
2022-11-30T19:54:10.675Z,100760.34
2022-11-30T19:56:39.098Z,100766.81
2022-11-30T19:59:06.821Z,100767.69
2022-11-30T20:01:35.477Z,100773.69
2022-11-30T20:04:04.499Z,100762.41
2022-11-30T20:06:34.586Z,100766.69
2022-11-30T20:09:03.248Z,100769.53
2022-11-30T20:11:32.900Z,100769.50
2022-11-30T20:14:00.982Z,100776.69
2022-11-30T20:16:30.166Z,100766.19
2022-11-30T20:19:00.560Z,100765.50
2022-11-30T20:21:31.550Z,100775.13
2022-11-30T20:24:01.418Z,100782.81
2022-11-30T20:26:34.264Z,100776.81
2022-11-30T20:29:04.765Z,100778.94
2022-11-30T20:31:35.712Z,100769.97
2022-11-30T20:34:03.669Z,100772.00
2022-11-30T20:36:31.638Z,100774.84
2022-11-30T20:39:00.080Z,100774.69
2022-11-30T20:41:28.722Z,100777.00
2022-11-30T20:43:57.829Z,100783.84
2022-11-30T20:46:28.055Z,100773.78
2022-11-30T20:48:56.931Z,100768.53
2022-11-30T20:51:31.657Z,100779.50
2022-11-30T20:54:01.043Z,100777.19
2022-11-30T20:56:29.133Z,100787.78
2022-11-30T20:59:04.164Z,100780.31
2022-11-30T21:01:31.975Z,100781.16
2022-11-30T21:04:00.674Z,100781.31
2022-11-30T21:06:28.597Z,100784.97
2022-11-30T21:08:56.594Z,100783.28
2022-11-30T21:11:24.578Z,100790.59
2022-11-30T21:13:52.913Z,100785.78
2022-11-30T21:16:28.300Z,100791.56
2022-11-30T21:18:57.978Z,100778.94
2022-11-30T21:21:28.033Z,100783.00
2022-11-30T21:23:55.710Z,100791.28
2022-11-30T21:26:25.666Z,100789.81
2022-11-30T21:28:55.793Z,100784.66
2022-11-30T21:31:25.368Z,100788.00
2022-11-30T21:33:54.483Z,100784.81
2022-11-30T21:36:23.138Z,100784.69
2022-11-30T21:38:58.148Z,100787.31
2022-11-30T21:41:31.025Z,100787.81
2022-11-30T21:43:58.887Z,100788.81
2022-11-30T21:46:28.739Z,100786.28
2022-11-30T21:48:56.546Z,100787.06
2022-11-30T21:51:26.484Z,100785.78
2022-11-30T21:53:57.025Z,100784.72
2022-11-30T21:56:26.629Z,100783.00
2022-11-30T21:58:54.493Z,100782.50
2022-11-30T22:01:27.016Z,100783.28
2022-11-30T22:03:58.130Z,100787.06
2022-11-30T22:06:28.300Z,100788.00
2022-11-30T22:08:57.677Z,100799.13
2022-11-30T22:11:25.816Z,100790.47
2022-11-30T22:13:54.820Z,100787.28
2022-11-30T22:16:24.358Z,100797.63
2022-11-30T22:18:54.297Z,100793.13
2022-11-30T22:21:25.290Z,100796.13
2022-11-30T22:23:55.396Z,100799.22
2022-11-30T22:26:26.719Z,100792.13
2022-11-30T22:28:56.939Z,100795.19
2022-11-30T22:31:26.559Z,100795.63
2022-11-30T22:33:54.436Z,100793.88
2022-11-30T22:36:25.420Z,100796.28
2022-11-30T22:38:56.224Z,100797.91
2022-11-30T22:41:26.456Z,100797.84
2022-11-30T22:43:55.841Z,100794.50
2022-11-30T22:46:25.241Z,100800.59
2022-11-30T22:48:53.515Z,100798.38
2022-11-30T22:51:25.961Z,100801.06
2022-11-30T22:53:54.176Z,100801.25
2022-11-30T22:56:23.725Z,100799.72
2022-11-30T22:58:53.860Z,100796.59
2022-11-30T23:01:23.702Z,100799.09
2022-11-30T23:03:53.388Z,100801.91
2022-11-30T23:06:22.208Z,100801.84
2022-11-30T23:08:52.354Z,100801.31
2022-11-30T23:11:23.264Z,100800.38
2022-11-30T23:13:51.153Z,100801.00
2022-11-30T23:16:20.006Z,100789.75
2022-11-30T23:18:49.866Z,100798.50
2022-11-30T23:21:20.099Z,100793.06
2022-11-30T23:23:48.765Z,100792.66
2022-11-30T23:26:19.906Z,100790.09
2022-11-30T23:28:50.061Z,100786.38
2022-11-30T23:31:34.652Z,100790.88
2022-11-30T23:34:05.364Z,100794.06
2022-11-30T23:36:33.460Z,100801.81
2022-11-30T23:39:02.667Z,100797.91
2022-11-30T23:41:31.898Z,100798.69
2022-11-30T23:43:59.590Z,100802.25
2022-11-30T23:46:27.572Z,100793.38
2022-11-30T23:48:55.964Z,100792.13
2022-11-30T23:51:24.750Z,100787.69
2022-11-30T23:53:52.742Z,100805.34
2022-11-30T23:56:22.304Z,100803.38
2022-11-30T23:58:51.308Z,100801.06
